createdAt,value
2022-09-28T00:00:01.646Z,48.57393263155081
2022-09-28T00:15:02.538Z,47.291222233890764
2022-09-28T00:30:02.209Z,47.096121500571975
2022-09-28T00:45:01.849Z,46.86706701880969
2022-09-28T01:00:02.475Z,47.00390707471836
2022-09-28T01:15:02.091Z,46.95850675218367
2022-09-28T01:30:01.773Z,47.89936846305194
2022-09-28T01:45:02.422Z,47.33613959317144
2022-09-28T02:00:02.018Z,47.042726105904144
2022-09-28T02:15:01.636Z,47.21071080215943
2022-09-28T02:30:02.301Z,46.99949550572178
2022-09-28T02:45:01.942Z,47.347083567786
2022-09-28T03:00:01.563Z,48.16552690842512
2022-09-28T03:15:02.204Z,48.89150454243195
2022-09-28T03:30:01.871Z,48.854717103285566
2022-09-28T03:45:01.483Z,48.196066975301086
2022-09-28T04:00:02.110Z,47.35485716026787
2022-09-28T04:15:01.742Z,46.69942265715528
2022-09-28T04:30:02.327Z,46.97885805588211
2022-09-28T04:45:01.966Z,47.14345150290274
2022-09-28T05:00:01.614Z,46.17457631916127
2022-09-28T05:15:02.224Z,47.1628789020749
2022-09-28T05:30:01.827Z,47.62131825164036
2022-09-28T05:45:01.416Z,48.300218863508455
2022-09-28T06:00:02.020Z,46.76764237410818
2022-09-28T06:15:01.627Z,45.95299211265647
2022-09-28T06:30:02.267Z,45.21215182377006
2022-09-28T06:45:01.864Z,45.97345594071182
2022-09-28T07:00:01.475Z,44.98576978728509
2022-09-28T07:15:02.092Z,45.50270890155781
2022-09-28T07:30:01.689Z,45.95523628606524
2022-09-28T07:45:01.327Z,45.88745536869391
2022-09-28T08:00:01.963Z,45.14230450943173
2022-09-28T08:15:01.846Z,44.276604208256494
2022-09-28T08:30:02.465Z,45.161956234115266
2022-09-28T08:45:02.052Z,43.1241230582015
2022-09-28T08:46:36.833Z,43.01049606061058
2022-09-28T08:47:08.664Z,43.004816283966285
2022-09-28T08:53:27.333Z,42.34986630573254
2022-09-28T08:53:47.360Z,42.33282550001737
2022-09-28T08:54:16.899Z,42.28720592651722
2022-09-28T08:54:31.352Z,42.26437131179031
2022-09-28T09:00:01.655Z,41.304102007375576
2022-09-28T09:15:02.284Z,41.89565262387994
2022-09-28T09:30:01.937Z,42.05639561777525
2022-09-28T09:45:01.534Z,42.71435754718613
2022-09-28T10:00:02.162Z,38.101952258370304
2022-09-28T10:15:01.759Z,40.992395309677406
2022-09-28T10:30:02.394Z,43.15413886205263
2022-09-28T10:45:01.991Z,45.373251257032535
2022-09-28T11:00:01.584Z,45.13084590435635
2022-09-28T11:15:02.210Z,41.68236485560413
2022-09-28T11:30:01.880Z,35.47806573688617
2022-09-28T11:45:01.501Z,31.138732592380688
2022-09-28T12:00:02.097Z,43.00594416772012
2022-09-28T12:15:01.742Z,45.47345657669646
2022-09-28T12:30:02.459Z,42.50701819236547
2022-09-28T12:45:02.101Z,44.35724162411563
2022-09-28T13:00:01.799Z,44.121511619162625
2022-09-28T13:15:01.600Z,41.10037252763988
2022-09-28T13:30:02.412Z,38.725105133135344
2022-09-28T13:45:02.111Z,36.13857779501157
2022-09-28T14:00:01.727Z,33.70695548735205
2022-09-28T14:15:01.373Z,30.871079755769482
2022-09-28T14:30:02.008Z,37.444816340288234
2022-09-28T14:45:05.383Z,42.42433812702526
2022-09-28T15:00:02.026Z,44.96886514444275
2022-09-28T15:15:01.690Z,37.47471845012164
2022-09-28T15:30:01.358Z,34.03391665308927
2022-09-28T15:45:02.016Z,35.81371362645179
2022-09-28T16:00:01.692Z,36.70951147714641
2022-09-28T16:15:01.712Z,38.93489045025949
2022-09-28T16:30:02.362Z,40.88502121164885
2022-09-28T16:45:01.983Z,44.669703276665594
2022-09-28T17:00:01.576Z,46.15731444213765
2022-09-28T17:15:02.214Z,46.76330981864886
2022-09-28T17:30:01.893Z,47.529527803375274
2022-09-28T17:45:01.563Z,47.68249534599844
2022-09-28T18:00:02.179Z,47.96447068951143
2022-09-28T18:15:01.786Z,47.67569452202215
2022-09-28T18:30:02.453Z,46.96780235670167
2022-09-28T18:45:02.107Z,46.584802077303806
2022-09-28T19:00:01.736Z,45.916692711424346
2022-09-28T19:15:02.366Z,45.28425943673033
2022-09-28T19:30:02.063Z,45.14267869395765
2022-09-28T19:45:01.699Z,45.37967711630217
2022-09-28T20:00:03.406Z,45.37341380102325
2022-09-28T20:15:01.606Z,45.89573640042998
2022-09-28T20:30:02.277Z,46.6953316095967
2022-09-28T20:45:01.919Z,46.864547745478646
2022-09-28T21:00:01.526Z,47.0384052793789
2022-09-28T21:15:05.741Z,47.12452816139132
2022-09-28T21:30:01.829Z,47.00764796539459
2022-09-28T21:45:01.471Z,47.06936155942145
2022-09-28T22:00:02.070Z,47.09133890495054
2022-09-28T22:15:01.712Z,47.095019910387094
2022-09-28T22:30:01.367Z,47.02719651200696
2022-09-28T22:45:01.970Z,46.97462052501215
2022-09-28T23:00:01.570Z,46.902648937248905
2022-09-28T23:15:02.177Z,46.754483087647266
2022-09-28T23:30:01.857Z,46.83739166846583
2022-09-28T23:45:01.507Z,46.26506563024766
